sensor_id;sensor_type;location;lat;lon;timestamp;temperature;humidity
56046;DHT22;41913;51.030;3.706;2022-09-21T00:01:42;11.80;99.90
56046;DHT22;41913;51.030;3.706;2022-09-21T00:04:09;11.80;99.90
56046;DHT22;41913;51.030;3.706;2022-09-21T00:06:38;11.80;99.90
56046;DHT22;41913;51.030;3.706;2022-09-21T00:09:04;11.70;99.90
56046;DHT22;41913;51.030;3.706;2022-09-21T00:11:32;11.50;99.90
56046;DHT22;41913;51.030;3.706;2022-09-21T00:13:59;11.50;99.90
56046;DHT22;41913;51.030;3.706;2022-09-21T00:16:27;11.50;99.90
56046;DHT22;41913;51.030;3.706;2022-09-21T00:18:56;11.60;99.90
56046;DHT22;41913;51.030;3.706;2022-09-21T00:21:23;11.60;99.90
56046;DHT22;41913;51.030;3.706;2022-09-21T00:23:48;11.50;99.90
56046;DHT22;41913;51.030;3.706;2022-09-21T00:26:18;11.40;99.90
56046;DHT22;41913;51.030;3.706;2022-09-21T00:28:45;11.50;99.90
56046;DHT22;41913;51.030;3.706;2022-09-21T00:31:14;11.40;99.90
56046;DHT22;41913;51.030;3.706;2022-09-21T00:33:42;11.40;99.90
56046;DHT22;41913;51.030;3.706;2022-09-21T00:36:09;11.40;99.90
56046;DHT22;41913;51.030;3.706;2022-09-21T00:38:35;11.40;99.90
56046;DHT22;41913;51.030;3.706;2022-09-21T00:41:02;11.40;99.90
56046;DHT22;41913;51.030;3.706;2022-09-21T00:43:27;11.40;99.90
56046;DHT22;41913;51.030;3.706;2022-09-21T00:45:56;11.40;99.90
56046;DHT22;41913;51.030;3.706;2022-09-21T00:50:54;11.40;99.90
56046;DHT22;41913;51.030;3.706;2022-09-21T00:53:21;11.40;99.90
56046;DHT22;41913;51.030;3.706;2022-09-21T00:58:18;11.30;99.90
56046;DHT22;41913;51.030;3.706;2022-09-21T01:00:47;11.30;99.90
56046;DHT22;41913;51.030;3.706;2022-09-21T01:03:14;11.20;99.90
56046;DHT22;41913;51.030;3.706;2022-09-21T01:05:39;11.30;99.90
56046;DHT22;41913;51.030;3.706;2022-09-21T01:08:08;11.30;99.90
56046;DHT22;41913;51.030;3.706;2022-09-21T01:10:50;11.50;99.90
56046;DHT22;41913;51.030;3.706;2022-09-21T01:16:13;11.10;99.90
56046;DHT22;41913;51.030;3.706;2022-09-21T01:26:15;10.90;99.90
56046;DHT22;41913;51.030;3.706;2022-09-21T01:31:24;11.00;99.90
56046;DHT22;41913;51.030;3.706;2022-09-21T01:33:56;10.90;99.90
56046;DHT22;41913;51.030;3.706;2022-09-21T01:36:23;10.90;99.90
56046;DHT22;41913;51.030;3.706;2022-09-21T01:38:52;11.00;99.90
56046;DHT22;41913;51.030;3.706;2022-09-21T01:41:21;11.00;99.90
56046;DHT22;41913;51.030;3.706;2022-09-21T01:43:57;11.00;99.90
56046;DHT22;41913;51.030;3.706;2022-09-21T01:46:28;10.90;99.90
56046;DHT22;41913;51.030;3.706;2022-09-21T01:48:58;10.80;99.90
56046;DHT22;41913;51.030;3.706;2022-09-21T01:51:25;10.70;99.90
56046;DHT22;41913;51.030;3.706;2022-09-21T01:56:32;10.50;99.90
56046;DHT22;41913;51.030;3.706;2022-09-21T02:04:13;10.50;99.90
56046;DHT22;41913;51.030;3.706;2022-09-21T02:06:41;10.50;99.90
56046;DHT22;41913;51.030;3.706;2022-09-21T02:09:09;10.30;99.90
56046;DHT22;41913;51.030;3.706;2022-09-21T02:11:36;10.20;99.90
56046;DHT22;41913;51.030;3.706;2022-09-21T02:14:04;10.20;99.90
56046;DHT22;41913;51.030;3.706;2022-09-21T02:22:03;10.30;99.90
56046;DHT22;41913;51.030;3.706;2022-09-21T02:24:32;10.30;99.90
56046;DHT22;41913;51.030;3.706;2022-09-21T02:27:04;10.30;99.90
56046;DHT22;41913;51.030;3.706;2022-09-21T02:32:23;10.50;99.90
56046;DHT22;41913;51.030;3.706;2022-09-21T02:35:03;10.50;99.90
56046;DHT22;41913;51.030;3.706;2022-09-21T02:37:41;10.30;99.90
56046;DHT22;41913;51.030;3.706;2022-09-21T02:42:40;10.10;99.90
56046;DHT22;41913;51.030;3.706;2022-09-21T02:45:14;10.10;99.90
56046;DHT22;41913;51.030;3.706;2022-09-21T02:47:47;10.10;99.90
56046;DHT22;41913;51.030;3.706;2022-09-21T02:50:21;10.30;99.90
56046;DHT22;41913;51.030;3.706;2022-09-21T02:52:48;10.20;99.90
56046;DHT22;41913;51.030;3.706;2022-09-21T02:55:15;10.30;99.90
56046;DHT22;41913;51.030;3.706;2022-09-21T02:57:42;10.40;99.90
56046;DHT22;41913;51.030;3.706;2022-09-21T03:00:08;10.30;99.90
56046;DHT22;41913;51.030;3.706;2022-09-21T03:02:43;10.20;99.90
56046;DHT22;41913;51.030;3.706;2022-09-21T03:07:39;10.20;99.90
56046;DHT22;41913;51.030;3.706;2022-09-21T03:10:04;10.30;99.90
56046;DHT22;41913;51.030;3.706;2022-09-21T03:12:34;10.40;99.90
56046;DHT22;41913;51.030;3.706;2022-09-21T03:15:03;10.50;99.90
56046;DHT22;41913;51.030;3.706;2022-09-21T03:17:29;10.40;99.90
56046;DHT22;41913;51.030;3.706;2022-09-21T03:19:55;10.20;99.90
56046;DHT22;41913;51.030;3.706;2022-09-21T03:22:21;10.10;99.90
56046;DHT22;41913;51.030;3.706;2022-09-21T03:24:47;10.20;99.90
56046;DHT22;41913;51.030;3.706;2022-09-21T03:27:16;10.20;99.90
56046;DHT22;41913;51.030;3.706;2022-09-21T03:29:42;10.20;99.90
56046;DHT22;41913;51.030;3.706;2022-09-21T03:32:11;10.20;99.90
56046;DHT22;41913;51.030;3.706;2022-09-21T03:34:38;10.20;99.90
56046;DHT22;41913;51.030;3.706;2022-09-21T03:37:04;10.20;99.90
56046;DHT22;41913;51.030;3.706;2022-09-21T03:39:30;10.20;99.90
56046;DHT22;41913;51.030;3.706;2022-09-21T03:41:59;10.20;99.90
56046;DHT22;41913;51.030;3.706;2022-09-21T03:44:25;10.10;99.90
56046;DHT22;41913;51.030;3.706;2022-09-21T03:46:52;10.10;99.90
56046;DHT22;41913;51.030;3.706;2022-09-21T03:49:20;10.00;99.90
56046;DHT22;41913;51.030;3.706;2022-09-21T03:51:45;10.00;99.90
56046;DHT22;41913;51.030;3.706;2022-09-21T03:54:17;9.90;99.90
56046;DHT22;41913;51.030;3.706;2022-09-21T03:56:48;9.90;99.90
56046;DHT22;41913;51.030;3.706;2022-09-21T03:59:14;9.70;99.90
56046;DHT22;41913;51.030;3.706;2022-09-21T04:01:45;9.80;99.90
56046;DHT22;41913;51.030;3.706;2022-09-21T04:06:40;9.90;99.90
56046;DHT22;41913;51.030;3.706;2022-09-21T04:09:07;9.80;99.90
56046;DHT22;41913;51.030;3.706;2022-09-21T04:11:46;9.90;99.90
56046;DHT22;41913;51.030;3.706;2022-09-21T04:14:13;10.10;99.90
56046;DHT22;41913;51.030;3.706;2022-09-21T04:16:40;9.90;99.90
56046;DHT22;41913;51.030;3.706;2022-09-21T04:19:13;9.80;99.90
56046;DHT22;41913;51.030;3.706;2022-09-21T04:21:39;9.70;99.90
56046;DHT22;41913;51.030;3.706;2022-09-21T04:26:50;9.60;99.90
56046;DHT22;41913;51.030;3.706;2022-09-21T04:31:48;9.60;99.90
56046;DHT22;41913;51.030;3.706;2022-09-21T04:34:16;9.60;99.90
56046;DHT22;41913;51.030;3.706;2022-09-21T04:36:44;9.70;99.90
56046;DHT22;41913;51.030;3.706;2022-09-21T04:39:12;9.70;99.90
56046;DHT22;41913;51.030;3.706;2022-09-21T04:41:40;9.70;99.90
56046;DHT22;41913;51.030;3.706;2022-09-21T04:44:08;9.70;99.90
56046;DHT22;41913;51.030;3.706;2022-09-21T04:46:38;9.70;99.90
56046;DHT22;41913;51.030;3.706;2022-09-21T04:49:03;9.80;99.90
56046;DHT22;41913;51.030;3.706;2022-09-21T04:51:29;9.70;99.90
56046;DHT22;41913;51.030;3.706;2022-09-21T04:53:56;9.80;99.90
56046;DHT22;41913;51.030;3.706;2022-09-21T04:56:24;9.80;99.90
56046;DHT22;41913;51.030;3.706;2022-09-21T04:58:50;9.90;99.90
56046;DHT22;41913;51.030;3.706;2022-09-21T05:01:17;9.80;99.90
56046;DHT22;41913;51.030;3.706;2022-09-21T05:03:43;9.80;99.90
56046;DHT22;41913;51.030;3.706;2022-09-21T05:06:08;9.70;99.90
56046;DHT22;41913;51.030;3.706;2022-09-21T05:08:39;9.50;99.90
56046;DHT22;41913;51.030;3.706;2022-09-21T05:11:24;9.50;99.90
56046;DHT22;41913;51.030;3.706;2022-09-21T05:13:51;9.50;99.90
56046;DHT22;41913;51.030;3.706;2022-09-21T05:16:17;9.40;99.90
56046;DHT22;41913;51.030;3.706;2022-09-21T05:18:43;9.40;99.90
56046;DHT22;41913;51.030;3.706;2022-09-21T05:21:10;9.40;99.90
56046;DHT22;41913;51.030;3.706;2022-09-21T05:23:37;9.30;99.90
56046;DHT22;41913;51.030;3.706;2022-09-21T05:26:03;9.30;99.90
56046;DHT22;41913;51.030;3.706;2022-09-21T05:28:28;9.40;99.90
56046;DHT22;41913;51.030;3.706;2022-09-21T05:33:25;9.50;99.90
56046;DHT22;41913;51.030;3.706;2022-09-21T05:36:10;9.60;99.90
56046;DHT22;41913;51.030;3.706;2022-09-21T05:38:40;9.70;99.90
56046;DHT22;41913;51.030;3.706;2022-09-21T05:41:07;9.70;99.90
56046;DHT22;41913;51.030;3.706;2022-09-21T05:43:33;9.70;99.90
56046;DHT22;41913;51.030;3.706;2022-09-21T05:46:02;9.60;99.90
56046;DHT22;41913;51.030;3.706;2022-09-21T05:48:39;9.60;99.90
56046;DHT22;41913;51.030;3.706;2022-09-21T05:58:55;10.10;99.90
56046;DHT22;41913;51.030;3.706;2022-09-21T06:03:52;9.70;99.90
56046;DHT22;41913;51.030;3.706;2022-09-21T06:06:18;9.60;99.90
56046;DHT22;41913;51.030;3.706;2022-09-21T06:08:44;9.60;99.90
56046;DHT22;41913;51.030;3.706;2022-09-21T06:11:11;9.60;99.90
56046;DHT22;41913;51.030;3.706;2022-09-21T06:13:38;9.60;99.90
56046;DHT22;41913;51.030;3.706;2022-09-21T06:16:05;9.60;99.90
56046;DHT22;41913;51.030;3.706;2022-09-21T06:18:35;9.60;99.90
56046;DHT22;41913;51.030;3.706;2022-09-21T06:21:01;9.70;99.90
56046;DHT22;41913;51.030;3.706;2022-09-21T06:23:27;9.70;99.90
56046;DHT22;41913;51.030;3.706;2022-09-21T06:25:53;9.90;99.90
56046;DHT22;41913;51.030;3.706;2022-09-21T06:28:19;10.00;99.90
56046;DHT22;41913;51.030;3.706;2022-09-21T06:30:49;10.00;99.90
56046;DHT22;41913;51.030;3.706;2022-09-21T06:33:14;10.00;99.90
56046;DHT22;41913;51.030;3.706;2022-09-21T06:36:07;10.00;99.90
56046;DHT22;41913;51.030;3.706;2022-09-21T06:38:31;10.20;99.90
56046;DHT22;41913;51.030;3.706;2022-09-21T06:41:01;10.30;99.90
56046;DHT22;41913;51.030;3.706;2022-09-21T06:43:27;10.30;99.90
56046;DHT22;41913;51.030;3.706;2022-09-21T06:45:53;10.30;99.90
56046;DHT22;41913;51.030;3.706;2022-09-21T06:48:19;10.40;99.90
56046;DHT22;41913;51.030;3.706;2022-09-21T06:50:46;10.50;99.90
56046;DHT22;41913;51.030;3.706;2022-09-21T06:53:11;10.60;99.90
56046;DHT22;41913;51.030;3.706;2022-09-21T06:55:38;10.60;99.90
56046;DHT22;41913;51.030;3.706;2022-09-21T06:58:03;10.70;99.90
56046;DHT22;41913;51.030;3.706;2022-09-21T07:00:30;10.80;99.90
56046;DHT22;41913;51.030;3.706;2022-09-21T07:02:56;10.90;99.90
56046;DHT22;41913;51.030;3.706;2022-09-21T07:05:22;11.00;99.90
56046;DHT22;41913;51.030;3.706;2022-09-21T07:07:49;11.10;99.90
56046;DHT22;41913;51.030;3.706;2022-09-21T07:10:15;11.30;99.90
56046;DHT22;41913;51.030;3.706;2022-09-21T07:12:42;11.40;99.90
56046;DHT22;41913;51.030;3.706;2022-09-21T07:15:08;11.40;99.90
56046;DHT22;41913;51.030;3.706;2022-09-21T07:17:35;11.40;99.90
56046;DHT22;41913;51.030;3.706;2022-09-21T07:20:02;11.50;99.90
56046;DHT22;41913;51.030;3.706;2022-09-21T07:22:28;11.50;99.90
56046;DHT22;41913;51.030;3.706;2022-09-21T07:24:55;11.60;99.90
56046;DHT22;41913;51.030;3.706;2022-09-21T07:27:23;11.60;99.90
56046;DHT22;41913;51.030;3.706;2022-09-21T07:29:49;11.70;99.90
56046;DHT22;41913;51.030;3.706;2022-09-21T07:32:16;11.80;99.90
56046;DHT22;41913;51.030;3.706;2022-09-21T07:34:41;11.90;99.90
56046;DHT22;41913;51.030;3.706;2022-09-21T07:37:07;12.00;99.90
56046;DHT22;41913;51.030;3.706;2022-09-21T07:39:33;12.10;99.90
56046;DHT22;41913;51.030;3.706;2022-09-21T07:42:00;12.10;99.90
56046;DHT22;41913;51.030;3.706;2022-09-21T07:44:26;12.10;99.90
56046;DHT22;41913;51.030;3.706;2022-09-21T07:46:54;12.30;99.90
56046;DHT22;41913;51.030;3.706;2022-09-21T07:49:21;12.70;99.90
56046;DHT22;41913;51.030;3.706;2022-09-21T07:51:46;14.40;99.90
56046;DHT22;41913;51.030;3.706;2022-09-21T07:54:12;16.10;99.90
56046;DHT22;41913;51.030;3.706;2022-09-21T07:56:42;18.10;99.90
56046;DHT22;41913;51.030;3.706;2022-09-21T07:59:29;19.50;99.90
56046;DHT22;41913;51.030;3.706;2022-09-21T08:01:58;20.90;99.90
56046;DHT22;41913;51.030;3.706;2022-09-21T08:04:25;22.30;98.60
56046;DHT22;41913;51.030;3.706;2022-09-21T08:06:54;23.50;96.10
56046;DHT22;41913;51.030;3.706;2022-09-21T08:09:20;24.40;94.20
56046;DHT22;41913;51.030;3.706;2022-09-21T08:11:48;25.20;92.60
56046;DHT22;41913;51.030;3.706;2022-09-21T08:14:13;26.00;91.80
56046;DHT22;41913;51.030;3.706;2022-09-21T08:16:44;27.00;90.00
56046;DHT22;41913;51.030;3.706;2022-09-21T08:19:11;26.70;88.10
56046;DHT22;41913;51.030;3.706;2022-09-21T08:21:36;26.00;88.50
56046;DHT22;41913;51.030;3.706;2022-09-21T08:24:02;24.70;90.10
56046;DHT22;41913;51.030;3.706;2022-09-21T08:26:28;25.90;87.30
56046;DHT22;41913;51.030;3.706;2022-09-21T08:28:54;26.70;86.00
56046;DHT22;41913;51.030;3.706;2022-09-21T08:31:24;27.30;84.50
56046;DHT22;41913;51.030;3.706;2022-09-21T08:33:50;28.00;81.60
56046;DHT22;41913;51.030;3.706;2022-09-21T08:36:17;28.70;79.60
56046;DHT22;41913;51.030;3.706;2022-09-21T08:38:45;28.50;79.80
56046;DHT22;41913;51.030;3.706;2022-09-21T08:41:19;28.20;77.20
56046;DHT22;41913;51.030;3.706;2022-09-21T08:43:51;29.10;78.00
56046;DHT22;41913;51.030;3.706;2022-09-21T08:46:19;29.80;76.00
56046;DHT22;41913;51.030;3.706;2022-09-21T08:48:53;30.20;75.00
56046;DHT22;41913;51.030;3.706;2022-09-21T08:51:20;30.70;73.50
56046;DHT22;41913;51.030;3.706;2022-09-21T08:53:48;30.60;72.30
56046;DHT22;41913;51.030;3.706;2022-09-21T08:56:15;30.90;71.00
56046;DHT22;41913;51.030;3.706;2022-09-21T08:58:41;31.50;70.50
56046;DHT22;41913;51.030;3.706;2022-09-21T09:01:20;31.60;69.70
56046;DHT22;41913;51.030;3.706;2022-09-21T09:06:48;29.70;70.00
56046;DHT22;41913;51.030;3.706;2022-09-21T09:09:26;30.20;70.50
56046;DHT22;41913;51.030;3.706;2022-09-21T09:11:58;28.90;72.10
56046;DHT22;41913;51.030;3.706;2022-09-21T09:19:36;26.30;75.50
56046;DHT22;41913;51.030;3.706;2022-09-21T09:22:05;26.30;75.80
56046;DHT22;41913;51.030;3.706;2022-09-21T09:24:37;27.90;73.20
56046;DHT22;41913;51.030;3.706;2022-09-21T09:27:05;27.90;73.80
56046;DHT22;41913;51.030;3.706;2022-09-21T09:32:14;29.60;70.90
56046;DHT22;41913;51.030;3.706;2022-09-21T09:34:52;30.50;68.60
56046;DHT22;41913;51.030;3.706;2022-09-21T09:37:19;30.90;69.20
56046;DHT22;41913;51.030;3.706;2022-09-21T09:39:53;32.00;67.20
56046;DHT22;41913;51.030;3.706;2022-09-21T09:42:35;29.70;67.10
56046;DHT22;41913;51.030;3.706;2022-09-21T09:45:11;29.90;68.00
56046;DHT22;41913;51.030;3.706;2022-09-21T09:50:23;29.00;67.70
56046;DHT22;41913;51.030;3.706;2022-09-21T09:52:51;29.60;67.40
56046;DHT22;41913;51.030;3.706;2022-09-21T09:55:25;30.10;66.20
56046;DHT22;41913;51.030;3.706;2022-09-21T09:57:54;29.20;66.50
56046;DHT22;41913;51.030;3.706;2022-09-21T10:00:23;29.70;67.00
56046;DHT22;41913;51.030;3.706;2022-09-21T10:02:50;28.70;66.70
56046;DHT22;41913;51.030;3.706;2022-09-21T10:07:45;29.60;65.80
56046;DHT22;41913;51.030;3.706;2022-09-21T10:10:22;28.90;67.10
56046;DHT22;41913;51.030;3.706;2022-09-21T10:12:49;27.90;68.20
56046;DHT22;41913;51.030;3.706;2022-09-21T10:15:17;28.00;68.40
56046;DHT22;41913;51.030;3.706;2022-09-21T10:17:45;28.90;66.80
56046;DHT22;41913;51.030;3.706;2022-09-21T10:20:16;28.30;67.60
56046;DHT22;41913;51.030;3.706;2022-09-21T10:22:45;28.10;67.00
56046;DHT22;41913;51.030;3.706;2022-09-21T10:25:15;28.20;67.60
56046;DHT22;41913;51.030;3.706;2022-09-21T10:27:47;28.00;67.80
56046;DHT22;41913;51.030;3.706;2022-09-21T10:32:56;27.40;68.40
56046;DHT22;41913;51.030;3.706;2022-09-21T10:35:22;28.90;67.10
56046;DHT22;41913;51.030;3.706;2022-09-21T10:37:49;28.90;66.80
56046;DHT22;41913;51.030;3.706;2022-09-21T10:40:36;26.80;68.00
56046;DHT22;41913;51.030;3.706;2022-09-21T10:43:02;27.70;67.20
56046;DHT22;41913;51.030;3.706;2022-09-21T10:45:29;28.40;66.40
56046;DHT22;41913;51.030;3.706;2022-09-21T10:47:56;28.40;65.80
56046;DHT22;41913;51.030;3.706;2022-09-21T10:50:34;28.50;65.90
56046;DHT22;41913;51.030;3.706;2022-09-21T10:55:29;28.30;64.30
56046;DHT22;41913;51.030;3.706;2022-09-21T10:57:58;28.30;64.50
56046;DHT22;41913;51.030;3.706;2022-09-21T11:00:27;26.30;66.10
56046;DHT22;41913;51.030;3.706;2022-09-21T11:03:10;24.20;70.10
56046;DHT22;41913;51.030;3.706;2022-09-21T11:05:48;24.20;68.70
56046;DHT22;41913;51.030;3.706;2022-09-21T11:08:39;22.10;73.10
56046;DHT22;41913;51.030;3.706;2022-09-21T11:11:16;22.60;72.00
56046;DHT22;41913;51.030;3.706;2022-09-21T11:16:32;22.10;73.20
56046;DHT22;41913;51.030;3.706;2022-09-21T11:26:51;20.80;76.50
56046;DHT22;41913;51.030;3.706;2022-09-21T11:29:26;20.60;72.30
56046;DHT22;41913;51.030;3.706;2022-09-21T11:34:37;19.80;73.40
56046;DHT22;41913;51.030;3.706;2022-09-21T11:37:18;19.80;71.40
56046;DHT22;41913;51.030;3.706;2022-09-21T11:42:30;19.50;74.90
56046;DHT22;41913;51.030;3.706;2022-09-21T11:44:59;19.40;72.80
56046;DHT22;41913;51.030;3.706;2022-09-21T11:47:34;20.00;72.50
56046;DHT22;41913;51.030;3.706;2022-09-21T12:00:14;20.70;72.00
56046;DHT22;41913;51.030;3.706;2022-09-21T12:02:50;20.20;74.10
56046;DHT22;41913;51.030;3.706;2022-09-21T12:15:59;20.10;74.70
56046;DHT22;41913;51.030;3.706;2022-09-21T12:18:33;20.50;74.20
56046;DHT22;41913;51.030;3.706;2022-09-21T12:25:59;20.90;73.80
56046;DHT22;41913;51.030;3.706;2022-09-21T12:28:27;21.00;73.30
56046;DHT22;41913;51.030;3.706;2022-09-21T12:30:56;21.30;72.60
56046;DHT22;41913;51.030;3.706;2022-09-21T12:33:31;21.40;73.40
56046;DHT22;41913;51.030;3.706;2022-09-21T12:36:04;21.20;73.50
56046;DHT22;41913;51.030;3.706;2022-09-21T12:38:38;21.00;73.80
56046;DHT22;41913;51.030;3.706;2022-09-21T12:41:27;20.60;74.60
56046;DHT22;41913;51.030;3.706;2022-09-21T12:44:04;20.20;75.70
56046;DHT22;41913;51.030;3.706;2022-09-21T12:47:23;20.20;75.70
56046;DHT22;41913;51.030;3.706;2022-09-21T12:49:36;19.90;76.20
56046;DHT22;41913;51.030;3.706;2022-09-21T12:52:03;19.60;76.10
56046;DHT22;41913;51.030;3.706;2022-09-21T12:54:34;19.60;77.50
56046;DHT22;41913;51.030;3.706;2022-09-21T12:57:15;19.40;77.80
56046;DHT22;41913;51.030;3.706;2022-09-21T12:59:55;19.70;77.00
56046;DHT22;41913;51.030;3.706;2022-09-21T13:09:46;20.50;75.30
56046;DHT22;41913;51.030;3.706;2022-09-21T13:12:23;20.20;75.90
56046;DHT22;41913;51.030;3.706;2022-09-21T13:14:59;20.30;76.70
56046;DHT22;41913;51.030;3.706;2022-09-21T13:17:27;19.70;78.60
56046;DHT22;41913;51.030;3.706;2022-09-21T13:19:58;19.00;79.80
56046;DHT22;41913;51.030;3.706;2022-09-21T13:22:25;18.90;80.90
56046;DHT22;41913;51.030;3.706;2022-09-21T13:24:58;18.90;81.30
56046;DHT22;41913;51.030;3.706;2022-09-21T13:30:27;18.90;80.80
56046;DHT22;41913;51.030;3.706;2022-09-21T13:32:54;18.80;80.60
56046;DHT22;41913;51.030;3.706;2022-09-21T13:40:57;19.10;80.70
56046;DHT22;41913;51.030;3.706;2022-09-21T13:43:23;18.80;81.20
56046;DHT22;41913;51.030;3.706;2022-09-21T13:45:51;18.90;80.90
56046;DHT22;41913;51.030;3.706;2022-09-21T13:48:20;19.10;80.70
56046;DHT22;41913;51.030;3.706;2022-09-21T13:50:51;19.20;81.00
56046;DHT22;41913;51.030;3.706;2022-09-21T13:53:21;19.30;81.00
56046;DHT22;41913;51.030;3.706;2022-09-21T13:55:52;19.70;80.40
56046;DHT22;41913;51.030;3.706;2022-09-21T13:58:23;19.80;79.80
56046;DHT22;41913;51.030;3.706;2022-09-21T14:00:56;19.90;77.10
56046;DHT22;41913;51.030;3.706;2022-09-21T14:05:51;20.00;76.80
56046;DHT22;41913;51.030;3.706;2022-09-21T14:08:24;20.00;76.20
56046;DHT22;41913;51.030;3.706;2022-09-21T14:10:52;20.50;75.40
56046;DHT22;41913;51.030;3.706;2022-09-21T14:13:30;21.10;74.30
56046;DHT22;41913;51.030;3.706;2022-09-21T14:18:41;21.60;73.80
56046;DHT22;41913;51.030;3.706;2022-09-21T14:21:11;21.50;74.20
56046;DHT22;41913;51.030;3.706;2022-09-21T14:28:55;20.50;76.10
56046;DHT22;41913;51.030;3.706;2022-09-21T14:31:27;20.10;76.00
56046;DHT22;41913;51.030;3.706;2022-09-21T14:33:54;19.70;76.80
56046;DHT22;41913;51.030;3.706;2022-09-21T14:36:30;19.40;78.50
56046;DHT22;41913;51.030;3.706;2022-09-21T14:39:00;19.20;78.30
56046;DHT22;41913;51.030;3.706;2022-09-21T14:41:29;19.40;78.80
56046;DHT22;41913;51.030;3.706;2022-09-21T14:43:58;19.30;79.20
56046;DHT22;41913;51.030;3.706;2022-09-21T14:59:26;18.50;81.00
56046;DHT22;41913;51.030;3.706;2022-09-21T15:01:58;18.30;81.60
56046;DHT22;41913;51.030;3.706;2022-09-21T15:04:46;18.40;81.90
56046;DHT22;41913;51.030;3.706;2022-09-21T15:07:19;18.30;82.00
56046;DHT22;41913;51.030;3.706;2022-09-21T15:18:17;18.90;80.80
56046;DHT22;41913;51.030;3.706;2022-09-21T15:20:53;19.30;80.00
56046;DHT22;41913;51.030;3.706;2022-09-21T15:23:19;20.10;78.50
56046;DHT22;41913;51.030;3.706;2022-09-21T15:25:52;20.50;75.90
56046;DHT22;41913;51.030;3.706;2022-09-21T15:28:24;20.70;75.90
56046;DHT22;41913;51.030;3.706;2022-09-21T15:30:50;20.20;76.50
56046;DHT22;41913;51.030;3.706;2022-09-21T15:33:20;19.60;77.50
56046;DHT22;41913;51.030;3.706;2022-09-21T15:35:47;19.30;78.00
56046;DHT22;41913;51.030;3.706;2022-09-21T15:38:30;19.10;78.90
56046;DHT22;41913;51.030;3.706;2022-09-21T15:40:57;18.80;79.20
56046;DHT22;41913;51.030;3.706;2022-09-21T15:43:22;18.60;79.00
56046;DHT22;41913;51.030;3.706;2022-09-21T15:45:50;18.70;79.80
56046;DHT22;41913;51.030;3.706;2022-09-21T15:48:22;18.90;79.90
56046;DHT22;41913;51.030;3.706;2022-09-21T15:51:02;19.20;78.40
56046;DHT22;41913;51.030;3.706;2022-09-21T15:53:30;19.60;77.50
56046;DHT22;41913;51.030;3.706;2022-09-21T15:56:00;20.10;76.80
56046;DHT22;41913;51.030;3.706;2022-09-21T15:58:31;20.50;76.50
56046;DHT22;41913;51.030;3.706;2022-09-21T16:03:34;20.80;74.80
56046;DHT22;41913;51.030;3.706;2022-09-21T16:06:00;20.60;75.60
56046;DHT22;41913;51.030;3.706;2022-09-21T16:08:41;20.40;74.80
56046;DHT22;41913;51.030;3.706;2022-09-21T16:11:13;20.20;75.90
56046;DHT22;41913;51.030;3.706;2022-09-21T16:13:43;20.30;75.30
56046;DHT22;41913;51.030;3.706;2022-09-21T16:16:30;20.10;76.00
56046;DHT22;41913;51.030;3.706;2022-09-21T16:19:01;20.20;76.80
56046;DHT22;41913;51.030;3.706;2022-09-21T16:21:28;20.10;75.80
56046;DHT22;41913;51.030;3.706;2022-09-21T16:23:57;20.20;76.00
56046;DHT22;41913;51.030;3.706;2022-09-21T16:26:24;19.80;76.90
56046;DHT22;41913;51.030;3.706;2022-09-21T16:29:25;19.40;77.20
56046;DHT22;41913;51.030;3.706;2022-09-21T16:31:44;19.10;78.10
56046;DHT22;41913;51.030;3.706;2022-09-21T16:37:01;19.20;78.30
56046;DHT22;41913;51.030;3.706;2022-09-21T16:39:27;19.00;78.20
56046;DHT22;41913;51.030;3.706;2022-09-21T16:41:57;18.90;78.00
56046;DHT22;41913;51.030;3.706;2022-09-21T16:44:25;18.80;77.80
56046;DHT22;41913;51.030;3.706;2022-09-21T16:47:00;18.60;78.10
56046;DHT22;41913;51.030;3.706;2022-09-21T16:49:27;18.40;79.10
56046;DHT22;41913;51.030;3.706;2022-09-21T16:51:54;18.30;79.70
56046;DHT22;41913;51.030;3.706;2022-09-21T16:54:21;18.20;80.30
56046;DHT22;41913;51.030;3.706;2022-09-21T16:56:51;17.90;81.40
56046;DHT22;41913;51.030;3.706;2022-09-21T16:59:18;17.60;82.30
56046;DHT22;41913;51.030;3.706;2022-09-21T17:01:55;17.50;83.00
56046;DHT22;41913;51.030;3.706;2022-09-21T17:04:23;17.40;83.60
56046;DHT22;41913;51.030;3.706;2022-09-21T17:06:49;17.50;83.50
56046;DHT22;41913;51.030;3.706;2022-09-21T17:09:20;17.40;83.40
56046;DHT22;41913;51.030;3.706;2022-09-21T17:11:48;17.40;83.30
56046;DHT22;41913;51.030;3.706;2022-09-21T17:14:17;17.30;83.50
56046;DHT22;41913;51.030;3.706;2022-09-21T17:16:45;17.30;84.00
56046;DHT22;41913;51.030;3.706;2022-09-21T17:19:11;17.20;84.10
56046;DHT22;41913;51.030;3.706;2022-09-21T17:21:36;17.30;84.30
56046;DHT22;41913;51.030;3.706;2022-09-21T17:24:03;17.20;84.70
56046;DHT22;41913;51.030;3.706;2022-09-21T17:28:59;17.10;85.00
56046;DHT22;41913;51.030;3.706;2022-09-21T17:31:26;17.10;85.60
56046;DHT22;41913;51.030;3.706;2022-09-21T17:33:52;17.00;86.20
56046;DHT22;41913;51.030;3.706;2022-09-21T17:36:18;17.00;86.30
56046;DHT22;41913;51.030;3.706;2022-09-21T17:38:43;16.90;86.70
56046;DHT22;41913;51.030;3.706;2022-09-21T17:44:04;16.80;87.60
56046;DHT22;41913;51.030;3.706;2022-09-21T17:46:38;16.70;87.80
56046;DHT22;41913;51.030;3.706;2022-09-21T17:49:05;16.70;88.10
56046;DHT22;41913;51.030;3.706;2022-09-21T17:51:32;16.70;88.30
56046;DHT22;41913;51.030;3.706;2022-09-21T17:54:16;16.70;88.70
56046;DHT22;41913;51.030;3.706;2022-09-21T17:56:57;16.60;88.90
56046;DHT22;41913;51.030;3.706;2022-09-21T17:59:30;16.60;89.00
56046;DHT22;41913;51.030;3.706;2022-09-21T18:01:58;16.60;89.30
56046;DHT22;41913;51.030;3.706;2022-09-21T18:04:25;16.60;89.80
56046;DHT22;41913;51.030;3.706;2022-09-21T18:06:52;16.50;90.10
56046;DHT22;41913;51.030;3.706;2022-09-21T18:09:18;16.50;90.10
56046;DHT22;41913;51.030;3.706;2022-09-21T18:24:58;16.10;90.80
56046;DHT22;41913;51.030;3.706;2022-09-21T18:27:27;16.10;90.80
56046;DHT22;41913;51.030;3.706;2022-09-21T18:29:54;16.10;90.90
56046;DHT22;41913;51.030;3.706;2022-09-21T18:35:03;15.90;91.10
56046;DHT22;41913;51.030;3.706;2022-09-21T18:42:45;15.70;91.70
56046;DHT22;41913;51.030;3.706;2022-09-21T18:45:26;15.60;91.60
56046;DHT22;41913;51.030;3.706;2022-09-21T18:53:35;15.50;91.90
56046;DHT22;41913;51.030;3.706;2022-09-21T18:56:05;15.50;91.90
56046;DHT22;41913;51.030;3.706;2022-09-21T18:58:32;15.50;91.90
56046;DHT22;41913;51.030;3.706;2022-09-21T19:00:58;15.50;91.90
56046;DHT22;41913;51.030;3.706;2022-09-21T19:03:26;15.50;92.10
56046;DHT22;41913;51.030;3.706;2022-09-21T19:08:32;15.40;92.10
56046;DHT22;41913;51.030;3.706;2022-09-21T19:13:50;15.40;92.40
56046;DHT22;41913;51.030;3.706;2022-09-21T19:21:30;15.40;92.60
56046;DHT22;41913;51.030;3.706;2022-09-21T19:24:18;15.50;92.60
56046;DHT22;41913;51.030;3.706;2022-09-21T19:27:13;15.50;92.90